sensor_id;sensor_type;location;lat;lon;timestamp;P1;P2;P0
48155;PMS5003;35568;48.104;11.782;2023-05-07T00:01:28;7;7;
48155;PMS5003;35568;48.104;11.782;2023-05-07T00:03:55;11;11;
48155;PMS5003;35568;48.104;11.782;2023-05-07T00:06:22;10;10;
48155;PMS5003;35568;48.104;11.782;2023-05-07T00:08:49;7;7;
48155;PMS5003;35568;48.104;11.782;2023-05-07T00:11:15;7;7;
48155;PMS5003;35568;48.104;11.782;2023-05-07T00:13:42;7;7;
48155;PMS5003;35568;48.104;11.782;2023-05-07T00:16:09;7;7;
48155;PMS5003;35568;48.104;11.782;2023-05-07T00:18:36;7;7;
48155;PMS5003;35568;48.104;11.782;2023-05-07T00:21:03;8;8;
48155;PMS5003;35568;48.104;11.782;2023-05-07T00:23:30;7;7;
48155;PMS5003;35568;48.104;11.782;2023-05-07T00:25:58;8;8;
48155;PMS5003;35568;48.104;11.782;2023-05-07T00:28:25;11;10;
48155;PMS5003;35568;48.104;11.782;2023-05-07T00:30:52;8;8;
48155;PMS5003;35568;48.104;11.782;2023-05-07T00:33:19;13;13;
48155;PMS5003;35568;48.104;11.782;2023-05-07T00:35:46;8;8;
48155;PMS5003;35568;48.104;11.782;2023-05-07T00:38:13;9;9;
48155;PMS5003;35568;48.104;11.782;2023-05-07T00:40:40;10;10;
48155;PMS5003;35568;48.104;11.782;2023-05-07T00:43:06;8;8;
48155;PMS5003;35568;48.104;11.782;2023-05-07T00:45:33;9;9;
48155;PMS5003;35568;48.104;11.782;2023-05-07T00:48:00;9;9;
48155;PMS5003;35568;48.104;11.782;2023-05-07T00:50:29;11;10;
48155;PMS5003;35568;48.104;11.782;2023-05-07T00:52:56;11;10;
48155;PMS5003;35568;48.104;11.782;2023-05-07T00:55:25;8;8;
48155;PMS5003;35568;48.104;11.782;2023-05-07T00:57:51;10;10;
48155;PMS5003;35568;48.104;11.782;2023-05-07T01:00:18;9;9;
48155;PMS5003;35568;48.104;11.782;2023-05-07T01:02:45;9;9;
48155;PMS5003;35568;48.104;11.782;2023-05-07T01:05:12;6;6;
48155;PMS5003;35568;48.104;11.782;2023-05-07T01:07:41;6;6;
48155;PMS5003;35568;48.104;11.782;2023-05-07T01:10:10;8;8;
48155;PMS5003;35568;48.104;11.782;2023-05-07T01:12:37;10;10;
48155;PMS5003;35568;48.104;11.782;2023-05-07T01:15:07;10;10;
48155;PMS5003;35568;48.104;11.782;2023-05-07T01:17:35;12;10;
48155;PMS5003;35568;48.104;11.782;2023-05-07T01:20:04;7;7;
48155;PMS5003;35568;48.104;11.782;2023-05-07T01:22:31;10;10;
48155;PMS5003;35568;48.104;11.782;2023-05-07T01:24:59;8;7;
48155;PMS5003;35568;48.104;11.782;2023-05-07T01:27:26;9;9;
48155;PMS5003;35568;48.104;11.782;2023-05-07T01:29:53;10;9;
48155;PMS5003;35568;48.104;11.782;2023-05-07T01:32:21;9;8;
48155;PMS5003;35568;48.104;11.782;2023-05-07T01:34:53;13;11;
48155;PMS5003;35568;48.104;11.782;2023-05-07T01:37:22;8;8;
48155;PMS5003;35568;48.104;11.782;2023-05-07T01:39:49;10;10;
48155;PMS5003;35568;48.104;11.782;2023-05-07T01:42:17;10;10;
48155;PMS5003;35568;48.104;11.782;2023-05-07T01:44:43;8;8;
48155;PMS5003;35568;48.104;11.782;2023-05-07T01:47:10;8;8;
48155;PMS5003;35568;48.104;11.782;2023-05-07T01:49:39;8;8;
48155;PMS5003;35568;48.104;11.782;2023-05-07T01:52:06;8;8;
48155;PMS5003;35568;48.104;11.782;2023-05-07T01:54:34;9;9;
48155;PMS5003;35568;48.104;11.782;2023-05-07T01:57:01;10;10;
48155;PMS5003;35568;48.104;11.782;2023-05-07T01:59:28;11;10;
48155;PMS5003;35568;48.104;11.782;2023-05-07T02:01:55;10;8;
48155;PMS5003;35568;48.104;11.782;2023-05-07T02:04:21;7;7;
48155;PMS5003;35568;48.104;11.782;2023-05-07T02:06:49;8;8;
48155;PMS5003;35568;48.104;11.782;2023-05-07T02:09:16;9;9;
48155;PMS5003;35568;48.104;11.782;2023-05-07T02:11:43;9;9;
48155;PMS5003;35568;48.104;11.782;2023-05-07T02:14:09;9;8;
48155;PMS5003;35568;48.104;11.782;2023-05-07T02:16:36;10;8;
48155;PMS5003;35568;48.104;11.782;2023-05-07T02:19:03;11;11;
48155;PMS5003;35568;48.104;11.782;2023-05-07T02:21:30;7;7;
48155;PMS5003;35568;48.104;11.782;2023-05-07T02:23:56;7;7;
48155;PMS5003;35568;48.104;11.782;2023-05-07T02:26:23;8;8;
48155;PMS5003;35568;48.104;11.782;2023-05-07T02:28:50;7;7;
48155;PMS5003;35568;48.104;11.782;2023-05-07T02:31:17;8;8;
48155;PMS5003;35568;48.104;11.782;2023-05-07T02:33:44;10;9;
48155;PMS5003;35568;48.104;11.782;2023-05-07T02:36:11;8;8;
48155;PMS5003;35568;48.104;11.782;2023-05-07T02:38:38;8;8;
48155;PMS5003;35568;48.104;11.782;2023-05-07T02:41:05;9;8;
48155;PMS5003;35568;48.104;11.782;2023-05-07T02:43:32;7;7;
48155;PMS5003;35568;48.104;11.782;2023-05-07T02:46:00;9;9;
48155;PMS5003;35568;48.104;11.782;2023-05-07T02:48:28;9;8;
48155;PMS5003;35568;48.104;11.782;2023-05-07T02:50:55;8;8;
48155;PMS5003;35568;48.104;11.782;2023-05-07T02:53:22;7;7;
48155;PMS5003;35568;48.104;11.782;2023-05-07T02:55:48;9;9;
48155;PMS5003;35568;48.104;11.782;2023-05-07T02:58:16;6;6;
48155;PMS5003;35568;48.104;11.782;2023-05-07T03:02:59;9;9;
48155;PMS5003;35568;48.104;11.782;2023-05-07T03:05:26;9;9;
48155;PMS5003;35568;48.104;11.782;2023-05-07T03:07:53;11;10;
48155;PMS5003;35568;48.104;11.782;2023-05-07T03:10:20;6;6;
48155;PMS5003;35568;48.104;11.782;2023-05-07T03:12:47;9;9;
48155;PMS5003;35568;48.104;11.782;2023-05-07T03:15:13;9;8;
48155;PMS5003;35568;48.104;11.782;2023-05-07T03:17:40;11;10;
48155;PMS5003;35568;48.104;11.782;2023-05-07T03:20:07;8;8;
48155;PMS5003;35568;48.104;11.782;2023-05-07T03:22:34;8;8;
48155;PMS5003;35568;48.104;11.782;2023-05-07T03:25:01;9;9;
48155;PMS5003;35568;48.104;11.782;2023-05-07T03:27:28;7;7;
48155;PMS5003;35568;48.104;11.782;2023-05-07T03:29:55;7;7;
48155;PMS5003;35568;48.104;11.782;2023-05-07T03:32:22;7;7;
48155;PMS5003;35568;48.104;11.782;2023-05-07T03:34:49;9;7;
48155;PMS5003;35568;48.104;11.782;2023-05-07T03:37:15;9;9;
48155;PMS5003;35568;48.104;11.782;2023-05-07T03:39:42;9;9;
48155;PMS5003;35568;48.104;11.782;2023-05-07T03:42:09;7;7;
48155;PMS5003;35568;48.104;11.782;2023-05-07T03:44:36;9;9;
48155;PMS5003;35568;48.104;11.782;2023-05-07T03:47:03;7;7;
48155;PMS5003;35568;48.104;11.782;2023-05-07T03:49:30;10;10;
48155;PMS5003;35568;48.104;11.782;2023-05-07T03:51:57;12;12;
48155;PMS5003;35568;48.104;11.782;2023-05-07T03:54:24;9;9;
48155;PMS5003;35568;48.104;11.782;2023-05-07T03:56:51;9;9;
48155;PMS5003;35568;48.104;11.782;2023-05-07T03:59:18;10;9;
48155;PMS5003;35568;48.104;11.782;2023-05-07T04:01:45;10;9;
48155;PMS5003;35568;48.104;11.782;2023-05-07T04:04:12;10;10;
48155;PMS5003;35568;48.104;11.782;2023-05-07T04:06:39;8;8;
48155;PMS5003;35568;48.104;11.782;2023-05-07T04:09:06;9;9;
48155;PMS5003;35568;48.104;11.782;2023-05-07T04:11:32;10;8;
48155;PMS5003;35568;48.104;11.782;2023-05-07T04:13:59;8;8;
48155;PMS5003;35568;48.104;11.782;2023-05-07T04:16:26;9;8;
48155;PMS5003;35568;48.104;11.782;2023-05-07T04:18:53;8;8;
48155;PMS5003;35568;48.104;11.782;2023-05-07T04:21:20;9;9;
48155;PMS5003;35568;48.104;11.782;2023-05-07T04:23:48;9;9;
48155;PMS5003;35568;48.104;11.782;2023-05-07T04:26:15;7;6;
48155;PMS5003;35568;48.104;11.782;2023-05-07T04:28:42;9;8;
48155;PMS5003;35568;48.104;11.782;2023-05-07T04:31:09;7;7;
48155;PMS5003;35568;48.104;11.782;2023-05-07T04:33:36;8;8;
48155;PMS5003;35568;48.104;11.782;2023-05-07T04:36:03;9;9;
48155;PMS5003;35568;48.104;11.782;2023-05-07T04:38:31;12;11;
48155;PMS5003;35568;48.104;11.782;2023-05-07T04:41:02;11;11;
48155;PMS5003;35568;48.104;11.782;2023-05-07T04:43:29;7;7;
48155;PMS5003;35568;48.104;11.782;2023-05-07T04:45:56;9;8;
48155;PMS5003;35568;48.104;11.782;2023-05-07T04:52:06;11;11;
48155;PMS5003;35568;48.104;11.782;2023-05-07T04:54:34;11;11;
48155;PMS5003;35568;48.104;11.782;2023-05-07T04:57:02;8;8;
48155;PMS5003;35568;48.104;11.782;2023-05-07T04:59:30;11;11;
48155;PMS5003;35568;48.104;11.782;2023-05-07T05:01:57;8;8;
48155;PMS5003;35568;48.104;11.782;2023-05-07T05:04:23;8;8;
48155;PMS5003;35568;48.104;11.782;2023-05-07T05:06:50;12;11;
48155;PMS5003;35568;48.104;11.782;2023-05-07T05:09:17;12;12;
48155;PMS5003;35568;48.104;11.782;2023-05-07T05:11:44;12;12;
48155;PMS5003;35568;48.104;11.782;2023-05-07T05:14:11;10;8;
48155;PMS5003;35568;48.104;11.782;2023-05-07T05:16:38;9;9;
48155;PMS5003;35568;48.104;11.782;2023-05-07T05:19:05;10;10;
48155;PMS5003;35568;48.104;11.782;2023-05-07T05:21:32;12;11;
48155;PMS5003;35568;48.104;11.782;2023-05-07T05:23:58;11;10;
48155;PMS5003;35568;48.104;11.782;2023-05-07T05:26:25;11;11;
48155;PMS5003;35568;48.104;11.782;2023-05-07T05:28:52;12;11;
48155;PMS5003;35568;48.104;11.782;2023-05-07T05:31:19;8;8;
48155;PMS5003;35568;48.104;11.782;2023-05-07T05:33:46;11;11;
48155;PMS5003;35568;48.104;11.782;2023-05-07T05:36:13;10;10;
48155;PMS5003;35568;48.104;11.782;2023-05-07T05:38:40;10;8;
48155;PMS5003;35568;48.104;11.782;2023-05-07T05:41:07;12;12;
48155;PMS5003;35568;48.104;11.782;2023-05-07T05:43:34;13;11;
48155;PMS5003;35568;48.104;11.782;2023-05-07T05:46:01;11;11;
48155;PMS5003;35568;48.104;11.782;2023-05-07T05:48:28;11;11;
48155;PMS5003;35568;48.104;11.782;2023-05-07T05:50:56;10;10;
48155;PMS5003;35568;48.104;11.782;2023-05-07T05:53:23;10;10;
48155;PMS5003;35568;48.104;11.782;2023-05-07T05:55:50;11;11;
48155;PMS5003;35568;48.104;11.782;2023-05-07T05:58:17;12;11;
48155;PMS5003;35568;48.104;11.782;2023-05-07T06:00:44;12;12;
48155;PMS5003;35568;48.104;11.782;2023-05-07T06:03:11;12;11;
48155;PMS5003;35568;48.104;11.782;2023-05-07T06:05:38;13;12;
48155;PMS5003;35568;48.104;11.782;2023-05-07T06:08:06;11;11;
48155;PMS5003;35568;48.104;11.782;2023-05-07T06:10:32;9;9;
48155;PMS5003;35568;48.104;11.782;2023-05-07T06:13:00;12;11;
48155;PMS5003;35568;48.104;11.782;2023-05-07T06:15:27;9;9;
48155;PMS5003;35568;48.104;11.782;2023-05-07T06:17:54;9;8;
48155;PMS5003;35568;48.104;11.782;2023-05-07T06:20:21;9;9;
48155;PMS5003;35568;48.104;11.782;2023-05-07T06:22:48;8;8;
48155;PMS5003;35568;48.104;11.782;2023-05-07T06:25:15;7;7;
48155;PMS5003;35568;48.104;11.782;2023-05-07T06:27:42;8;8;
48155;PMS5003;35568;48.104;11.782;2023-05-07T06:30:09;8;8;
48155;PMS5003;35568;48.104;11.782;2023-05-07T06:32:36;7;7;
48155;PMS5003;35568;48.104;11.782;2023-05-07T06:35:03;8;8;
48155;PMS5003;35568;48.104;11.782;2023-05-07T06:37:30;8;8;
48155;PMS5003;35568;48.104;11.782;2023-05-07T06:39:57;6;6;
48155;PMS5003;35568;48.104;11.782;2023-05-07T06:42:24;5;5;
48155;PMS5003;35568;48.104;11.782;2023-05-07T06:44:52;8;7;
48155;PMS5003;35568;48.104;11.782;2023-05-07T06:47:18;6;6;
48155;PMS5003;35568;48.104;11.782;2023-05-07T06:49:45;8;7;
48155;PMS5003;35568;48.104;11.782;2023-05-07T06:52:12;6;5;
48155;PMS5003;35568;48.104;11.782;2023-05-07T06:54:39;5;5;
48155;PMS5003;35568;48.104;11.782;2023-05-07T06:57:06;5;5;
48155;PMS5003;35568;48.104;11.782;2023-05-07T06:59:32;8;7;
48155;PMS5003;35568;48.104;11.782;2023-05-07T07:01:59;7;6;
48155;PMS5003;35568;48.104;11.782;2023-05-07T07:04:26;4;4;
48155;PMS5003;35568;48.104;11.782;2023-05-07T07:06:53;5;5;
48155;PMS5003;35568;48.104;11.782;2023-05-07T07:09:20;5;4;
48155;PMS5003;35568;48.104;11.782;2023-05-07T07:11:47;7;7;
48155;PMS5003;35568;48.104;11.782;2023-05-07T07:14:14;6;6;
48155;PMS5003;35568;48.104;11.782;2023-05-07T07:16:41;8;7;
48155;PMS5003;35568;48.104;11.782;2023-05-07T07:19:07;6;5;
48155;PMS5003;35568;48.104;11.782;2023-05-07T07:21:34;5;5;
48155;PMS5003;35568;48.104;11.782;2023-05-07T07:24:01;5;5;
48155;PMS5003;35568;48.104;11.782;2023-05-07T07:26:28;5;5;
48155;PMS5003;35568;48.104;11.782;2023-05-07T07:28:55;6;5;
48155;PMS5003;35568;48.104;11.782;2023-05-07T07:31:21;5;5;
48155;PMS5003;35568;48.104;11.782;2023-05-07T07:33:49;5;5;
48155;PMS5003;35568;48.104;11.782;2023-05-07T07:36:15;7;6;
48155;PMS5003;35568;48.104;11.782;2023-05-07T07:38:42;5;5;
48155;PMS5003;35568;48.104;11.782;2023-05-07T07:41:09;7;7;
48155;PMS5003;35568;48.104;11.782;2023-05-07T07:43:36;7;7;
48155;PMS5003;35568;48.104;11.782;2023-05-07T07:46:03;7;6;
48155;PMS5003;35568;48.104;11.782;2023-05-07T07:48:30;5;5;
48155;PMS5003;35568;48.104;11.782;2023-05-07T07:50:58;6;6;
48155;PMS5003;35568;48.104;11.782;2023-05-07T07:53:25;7;7;
48155;PMS5003;35568;48.104;11.782;2023-05-07T07:55:52;7;7;
48155;PMS5003;35568;48.104;11.782;2023-05-07T07:58:19;7;7;
48155;PMS5003;35568;48.104;11.782;2023-05-07T08:00:45;4;4;
48155;PMS5003;35568;48.104;11.782;2023-05-07T08:03:12;6;6;
48155;PMS5003;35568;48.104;11.782;2023-05-07T08:05:39;6;6;
48155;PMS5003;35568;48.104;11.782;2023-05-07T08:08:06;3;3;
48155;PMS5003;35568;48.104;11.782;2023-05-07T08:10:34;4;4;
48155;PMS5003;35568;48.104;11.782;2023-05-07T08:13:01;6;6;
48155;PMS5003;35568;48.104;11.782;2023-05-07T08:15:27;5;5;
48155;PMS5003;35568;48.104;11.782;2023-05-07T08:17:54;6;6;
48155;PMS5003;35568;48.104;11.782;2023-05-07T08:20:21;5;5;
48155;PMS5003;35568;48.104;11.782;2023-05-07T08:22:48;5;5;
48155;PMS5003;35568;48.104;11.782;2023-05-07T08:25:14;5;5;
48155;PMS5003;35568;48.104;11.782;2023-05-07T08:27:41;5;5;
48155;PMS5003;35568;48.104;11.782;2023-05-07T08:30:08;6;6;
48155;PMS5003;35568;48.104;11.782;2023-05-07T08:32:36;3;3;
48155;PMS5003;35568;48.104;11.782;2023-05-07T08:35:03;5;4;
48155;PMS5003;35568;48.104;11.782;2023-05-07T08:37:31;4;4;
48155;PMS5003;35568;48.104;11.782;2023-05-07T08:39:58;7;7;
48155;PMS5003;35568;48.104;11.782;2023-05-07T08:42:24;3;3;
48155;PMS5003;35568;48.104;11.782;2023-05-07T08:44:52;5;5;
48155;PMS5003;35568;48.104;11.782;2023-05-07T08:47:23;4;4;
48155;PMS5003;35568;48.104;11.782;2023-05-07T08:49:58;5;5;
48155;PMS5003;35568;48.104;11.782;2023-05-07T08:52:26;3;3;
48155;PMS5003;35568;48.104;11.782;2023-05-07T08:54:53;4;4;
48155;PMS5003;35568;48.104;11.782;2023-05-07T08:57:19;5;4;
48155;PMS5003;35568;48.104;11.782;2023-05-07T08:59:46;5;4;
48155;PMS5003;35568;48.104;11.782;2023-05-07T09:02:13;7;5;
48155;PMS5003;35568;48.104;11.782;2023-05-07T09:04:40;4;4;
48155;PMS5003;35568;48.104;11.782;2023-05-07T09:07:06;3;3;
48155;PMS5003;35568;48.104;11.782;2023-05-07T09:09:33;4;4;
48155;PMS5003;35568;48.104;11.782;2023-05-07T09:12:00;3;3;
48155;PMS5003;35568;48.104;11.782;2023-05-07T09:14:27;5;4;
48155;PMS5003;35568;48.104;11.782;2023-05-07T09:16:54;3;3;
48155;PMS5003;35568;48.104;11.782;2023-05-07T09:19:22;3;3;
48155;PMS5003;35568;48.104;11.782;2023-05-07T09:21:57;3;3;
48155;PMS5003;35568;48.104;11.782;2023-05-07T09:24:25;4;4;
48155;PMS5003;35568;48.104;11.782;2023-05-07T09:26:51;2;2;
48155;PMS5003;35568;48.104;11.782;2023-05-07T09:29:18;3;3;
48155;PMS5003;35568;48.104;11.782;2023-05-07T09:31:45;3;3;
48155;PMS5003;35568;48.104;11.782;2023-05-07T09:34:11;4;4;
48155;PMS5003;35568;48.104;11.782;2023-05-07T09:36:38;6;5;
48155;PMS5003;35568;48.104;11.782;2023-05-07T09:39:05;4;4;
48155;PMS5003;35568;48.104;11.782;2023-05-07T09:41:32;5;4;
48155;PMS5003;35568;48.104;11.782;2023-05-07T09:43:58;4;4;
48155;PMS5003;35568;48.104;11.782;2023-05-07T09:46:28;4;4;
48155;PMS5003;35568;48.104;11.782;2023-05-07T09:48:57;5;5;
48155;PMS5003;35568;48.104;11.782;2023-05-07T09:51:29;5;5;
48155;PMS5003;35568;48.104;11.782;2023-05-07T09:53:58;7;6;
48155;PMS5003;35568;48.104;11.782;2023-05-07T09:56:26;4;4;
48155;PMS5003;35568;48.104;11.782;2023-05-07T09:58:54;4;4;
48155;PMS5003;35568;48.104;11.782;2023-05-07T10:01:24;5;4;
48155;PMS5003;35568;48.104;11.782;2023-05-07T10:03:52;5;4;
48155;PMS5003;35568;48.104;11.782;2023-05-07T10:06:19;4;4;
48155;PMS5003;35568;48.104;11.782;2023-05-07T10:08:47;4;4;
48155;PMS5003;35568;48.104;11.782;2023-05-07T10:11:15;5;5;
48155;PMS5003;35568;48.104;11.782;2023-05-07T10:13:42;3;3;
48155;PMS5003;35568;48.104;11.782;2023-05-07T10:16:10;3;3;
48155;PMS5003;35568;48.104;11.782;2023-05-07T10:18:37;4;4;
48155;PMS5003;35568;48.104;11.782;2023-05-07T10:21:07;4;4;
48155;PMS5003;35568;48.104;11.782;2023-05-07T10:23:37;5;5;
48155;PMS5003;35568;48.104;11.782;2023-05-07T10:26:06;4;4;
48155;PMS5003;35568;48.104;11.782;2023-05-07T10:28:36;4;3;
48155;PMS5003;35568;48.104;11.782;2023-05-07T10:31:09;3;2;
48155;PMS5003;35568;48.104;11.782;2023-05-07T10:33:50;4;4;
48155;PMS5003;35568;48.104;11.782;2023-05-07T10:36:19;2;2;
48155;PMS5003;35568;48.104;11.782;2023-05-07T10:38:47;3;3;
48155;PMS5003;35568;48.104;11.782;2023-05-07T10:41:14;1;1;
48155;PMS5003;35568;48.104;11.782;2023-05-07T10:43:41;3;3;
48155;PMS5003;35568;48.104;11.782;2023-05-07T10:46:11;3;3;
48155;PMS5003;35568;48.104;11.782;2023-05-07T10:49:13;4;4;
48155;PMS5003;35568;48.104;11.782;2023-05-07T10:51:45;4;4;
48155;PMS5003;35568;48.104;11.782;2023-05-07T10:54:37;3;3;
48155;PMS5003;35568;48.104;11.782;2023-05-07T10:57:32;4;4;
48155;PMS5003;35568;48.104;11.782;2023-05-07T11:00:00;3;3;
48155;PMS5003;35568;48.104;11.782;2023-05-07T11:02:46;6;5;
48155;PMS5003;35568;48.104;11.782;2023-05-07T11:05:32;3;3;
48155;PMS5003;35568;48.104;11.782;2023-05-07T11:08:00;5;4;
48155;PMS5003;35568;48.104;11.782;2023-05-07T11:10:59;7;6;
48155;PMS5003;35568;48.104;11.782;2023-05-07T11:13:42;7;7;
48155;PMS5003;35568;48.104;11.782;2023-05-07T11:16:17;7;7;
48155;PMS5003;35568;48.104;11.782;2023-05-07T11:18:46;5;5;
48155;PMS5003;35568;48.104;11.782;2023-05-07T11:21:20;5;5;
48155;PMS5003;35568;48.104;11.782;2023-05-07T11:23:59;5;5;
48155;PMS5003;35568;48.104;11.782;2023-05-07T11:26:27;5;5;
48155;PMS5003;35568;48.104;11.782;2023-05-07T11:28:55;6;6;
48155;PMS5003;35568;48.104;11.782;2023-05-07T11:31:24;6;6;
48155;PMS5003;35568;48.104;11.782;2023-05-07T11:33:53;7;7;
48155;PMS5003;35568;48.104;11.782;2023-05-07T11:36:22;6;6;
48155;PMS5003;35568;48.104;11.782;2023-05-07T11:38:49;7;7;
48155;PMS5003;35568;48.104;11.782;2023-05-07T11:41:16;5;5;
48155;PMS5003;35568;48.104;11.782;2023-05-07T11:43:56;7;7;
48155;PMS5003;35568;48.104;11.782;2023-05-07T11:46:23;7;7;
48155;PMS5003;35568;48.104;11.782;2023-05-07T11:48:50;7;7;
48155;PMS5003;35568;48.104;11.782;2023-05-07T11:51:19;7;7;
48155;PMS5003;35568;48.104;11.782;2023-05-07T11:53:46;5;5;
48155;PMS5003;35568;48.104;11.782;2023-05-07T11:56:14;6;6;
48155;PMS5003;35568;48.104;11.782;2023-05-07T11:58:43;6;6;
48155;PMS5003;35568;48.104;11.782;2023-05-07T12:01:11;9;8;
48155;PMS5003;35568;48.104;11.782;2023-05-07T12:03:40;7;7;
48155;PMS5003;35568;48.104;11.782;2023-05-07T12:06:08;7;6;
48155;PMS5003;35568;48.104;11.782;2023-05-07T12:08:36;8;7;
48155;PMS5003;35568;48.104;11.782;2023-05-07T12:11:04;7;7;
48155;PMS5003;35568;48.104;11.782;2023-05-07T12:13:35;6;6;
48155;PMS5003;35568;48.104;11.782;2023-05-07T12:16:02;8;8;
48155;PMS5003;35568;48.104;11.782;2023-05-07T12:18:32;6;6;
48155;PMS5003;35568;48.104;11.782;2023-05-07T12:21:00;5;5;
48155;PMS5003;35568;48.104;11.782;2023-05-07T12:23:28;6;6;
48155;PMS5003;35568;48.104;11.782;2023-05-07T12:25:55;6;6;
48155;PMS5003;35568;48.104;11.782;2023-05-07T12:28:22;6;6;
48155;PMS5003;35568;48.104;11.782;2023-05-07T12:30:50;7;7;
48155;PMS5003;35568;48.104;11.782;2023-05-07T12:33:18;7;6;
48155;PMS5003;35568;48.104;11.782;2023-05-07T12:35:50;6;6;
48155;PMS5003;35568;48.104;11.782;2023-05-07T12:38:18;5;5;
48155;PMS5003;35568;48.104;11.782;2023-05-07T12:40:46;8;8;
48155;PMS5003;35568;48.104;11.782;2023-05-07T12:43:15;7;7;
48155;PMS5003;35568;48.104;11.782;2023-05-07T12:45:43;5;5;
48155;PMS5003;35568;48.104;11.782;2023-05-07T12:48:10;6;6;
48155;PMS5003;35568;48.104;11.782;2023-05-07T12:50:37;6;6;
48155;PMS5003;35568;48.104;11.782;2023-05-07T12:53:04;6;6;
48155;PMS5003;35568;48.104;11.782;2023-05-07T12:55:32;6;6;
48155;PMS5003;35568;48.104;11.782;2023-05-07T12:58:06;5;5;
48155;PMS5003;35568;48.104;11.782;2023-05-07T13:00:33;6;6;
48155;PMS5003;35568;48.104;11.782;2023-05-07T13:03:01;5;5;
48155;PMS5003;35568;48.104;11.782;2023-05-07T13:05:28;5;5;
48155;PMS5003;35568;48.104;11.782;2023-05-07T13:07:55;5;4;
48155;PMS5003;35568;48.104;11.782;2023-05-07T13:10:22;5;5;
48155;PMS5003;35568;48.104;11.782;2023-05-07T13:12:50;5;5;
48155;PMS5003;35568;48.104;11.782;2023-05-07T13:15:17;5;5;
48155;PMS5003;35568;48.104;11.782;2023-05-07T13:17:45;6;5;
48155;PMS5003;35568;48.104;11.782;2023-05-07T13:20:12;6;5;
48155;PMS5003;35568;48.104;11.782;2023-05-07T13:22:38;4;4;
48155;PMS5003;35568;48.104;11.782;2023-05-07T13:25:07;6;5;
48155;PMS5003;35568;48.104;11.782;2023-05-07T13:27:35;4;4;
48155;PMS5003;35568;48.104;11.782;2023-05-07T13:30:01;5;5;
48155;PMS5003;35568;48.104;11.782;2023-05-07T13:32:29;5;5;
48155;PMS5003;35568;48.104;11.782;2023-05-07T13:34:56;5;5;
48155;PMS5003;35568;48.104;11.782;2023-05-07T13:37:23;5;5;
48155;PMS5003;35568;48.104;11.782;2023-05-07T13:39:50;6;6;
48155;PMS5003;35568;48.104;11.782;2023-05-07T13:42:17;5;5;
48155;PMS5003;35568;48.104;11.782;2023-05-07T13:44:43;4;4;
48155;PMS5003;35568;48.104;11.782;2023-05-07T13:47:10;3;3;
48155;PMS5003;35568;48.104;11.782;2023-05-07T13:49:37;3;3;
48155;PMS5003;35568;48.104;11.782;2023-05-07T13:52:04;4;4;
48155;PMS5003;35568;48.104;11.782;2023-05-07T13:54:31;6;5;
48155;PMS5003;35568;48.104;11.782;2023-05-07T13:56:58;5;5;
48155;PMS5003;35568;48.104;11.782;2023-05-07T13:59:25;4;4;
48155;PMS5003;35568;48.104;11.782;2023-05-07T14:01:52;4;4;
48155;PMS5003;35568;48.104;11.782;2023-05-07T14:04:18;3;3;
48155;PMS5003;35568;48.104;11.782;2023-05-07T14:06:45;4;4;
48155;PMS5003;35568;48.104;11.782;2023-05-07T14:09:12;4;4;
48155;PMS5003;35568;48.104;11.782;2023-05-07T14:11:39;5;5;
48155;PMS5003;35568;48.104;11.782;2023-05-07T14:14:05;3;3;
48155;PMS5003;35568;48.104;11.782;2023-05-07T14:16:32;4;4;
48155;PMS5003;35568;48.104;11.782;2023-05-07T14:19:00;4;4;
48155;PMS5003;35568;48.104;11.782;2023-05-07T14:21:27;3;2;
48155;PMS5003;35568;48.104;11.782;2023-05-07T14:23:53;4;4;
48155;PMS5003;35568;48.104;11.782;2023-05-07T14:26:20;4;4;
48155;PMS5003;35568;48.104;11.782;2023-05-07T14:28:47;5;5;
48155;PMS5003;35568;48.104;11.782;2023-05-07T14:31:14;3;3;
48155;PMS5003;35568;48.104;11.782;2023-05-07T14:33:40;4;4;
48155;PMS5003;35568;48.104;11.782;2023-05-07T14:36:07;6;6;
48155;PMS5003;35568;48.104;11.782;2023-05-07T14:38:34;10;9;
48155;PMS5003;35568;48.104;11.782;2023-05-07T14:41:01;6;6;
48155;PMS5003;35568;48.104;11.782;2023-05-07T14:43:27;6;6;
48155;PMS5003;35568;48.104;11.782;2023-05-07T14:45:54;4;4;
48155;PMS5003;35568;48.104;11.782;2023-05-07T14:48:21;5;5;
48155;PMS5003;35568;48.104;11.782;2023-05-07T14:50:48;5;5;
48155;PMS5003;35568;48.104;11.782;2023-05-07T14:53:14;6;5;
48155;PMS5003;35568;48.104;11.782;2023-05-07T14:55:41;9;8;
48155;PMS5003;35568;48.104;11.782;2023-05-07T14:58:08;5;4;
48155;PMS5003;35568;48.104;11.782;2023-05-07T15:00:35;4;4;
48155;PMS5003;35568;48.104;11.782;2023-05-07T15:03:04;5;5;
48155;PMS5003;35568;48.104;11.782;2023-05-07T15:05:33;5;5;
48155;PMS5003;35568;48.104;11.782;2023-05-07T15:08:00;5;4;
48155;PMS5003;35568;48.104;11.782;2023-05-07T15:10:27;4;4;
48155;PMS5003;35568;48.104;11.782;2023-05-07T15:12:55;4;4;
48155;PMS5003;35568;48.104;11.782;2023-05-07T15:15:21;4;4;
48155;PMS5003;35568;48.104;11.782;2023-05-07T15:17:48;4;4;
48155;PMS5003;35568;48.104;11.782;2023-05-07T15:20:15;5;5;
48155;PMS5003;35568;48.104;11.782;2023-05-07T15:22:42;5;4;
48155;PMS5003;35568;48.104;11.782;2023-05-07T15:25:08;6;6;
48155;PMS5003;35568;48.104;11.782;2023-05-07T15:27:35;4;4;
48155;PMS5003;35568;48.104;11.782;2023-05-07T15:30:02;6;6;
48155;PMS5003;35568;48.104;11.782;2023-05-07T15:32:29;4;4;
48155;PMS5003;35568;48.104;11.782;2023-05-07T15:34:56;3;3;
48155;PMS5003;35568;48.104;11.782;2023-05-07T15:37:23;5;4;
48155;PMS5003;35568;48.104;11.782;2023-05-07T15:39:50;5;5;
48155;PMS5003;35568;48.104;11.782;2023-05-07T15:42:16;4;4;
48155;PMS5003;35568;48.104;11.782;2023-05-07T15:44:43;4;4;
48155;PMS5003;35568;48.104;11.782;2023-05-07T15:47:10;3;3;
48155;PMS5003;35568;48.104;11.782;2023-05-07T15:49:37;5;5;
48155;PMS5003;35568;48.104;11.782;2023-05-07T15:52:04;4;3;
48155;PMS5003;35568;48.104;11.782;2023-05-07T15:54:30;8;7;
48155;PMS5003;35568;48.104;11.782;2023-05-07T15:56:57;5;5;
48155;PMS5003;35568;48.104;11.782;2023-05-07T15:59:24;5;5;
48155;PMS5003;35568;48.104;11.782;2023-05-07T16:01:50;4;4;
48155;PMS5003;35568;48.104;11.782;2023-05-07T16:04:17;5;5;
48155;PMS5003;35568;48.104;11.782;2023-05-07T16:06:44;4;4;
48155;PMS5003;35568;48.104;11.782;2023-05-07T16:09:11;5;5;
48155;PMS5003;35568;48.104;11.782;2023-05-07T16:11:37;3;3;
48155;PMS5003;35568;48.104;11.782;2023-05-07T16:14:04;5;5;
48155;PMS5003;35568;48.104;11.782;2023-05-07T16:16:31;6;6;
48155;PMS5003;35568;48.104;11.782;2023-05-07T16:18:59;6;5;
48155;PMS5003;35568;48.104;11.782;2023-05-07T16:21:25;4;4;
48155;PMS5003;35568;48.104;11.782;2023-05-07T16:23:52;6;6;
48155;PMS5003;35568;48.104;11.782;2023-05-07T16:26:19;179;173;
48155;PMS5003;35568;48.104;11.782;2023-05-07T16:28:46;365;339;
48155;PMS5003;35568;48.104;11.782;2023-05-07T16:31:13;169;161;
48155;PMS5003;35568;48.104;11.782;2023-05-07T16:33:40;23;21;
48155;PMS5003;35568;48.104;11.782;2023-05-07T16:36:07;22;22;
48155;PMS5003;35568;48.104;11.782;2023-05-07T16:38:33;10;10;